Dickinson Center, New York
Current Conditions -  °F | °C
As of 10:53 AM on Friday 31 Oct 2014 (Local Time) from KMSS Reporting Station
Clear Clear  
Wind Chill: 39°   Ceiling: Unl
Heat Index: 42°   Visibility: 10mi
Dew Point: 29°   Wind: 5mph
Humidity: 60%   Direction: 50°NE
Pressure: 30.08"   Gusts: NA
Location:  44.72°N, 74.55°W
Report Text: KMSS 311453Z AUTO 05004KT 10SM CLR 06/M02 A3008 RMK AO2 SLP189 T00561017 50002
Loading
Personal Weather Stations






























Interactive Weather Map
Tropical Storm Tracking
New forecast layout! Learn more

10-Day Weather Forecast

Advertisements
Track Severe Weather on mobile